sensor_id;sensor_type;location;lat;lon;timestamp;temperature;humidity
75153;HTU21D;63734;45.218;36.708;2022-11-20T00:01:13;10.03;100.34
75153;HTU21D;63734;45.218;36.708;2022-11-20T00:03:39;10.03;100.32
75153;HTU21D;63734;45.218;36.708;2022-11-20T00:06:08;10.06;100.32
75153;HTU21D;63734;45.218;36.708;2022-11-20T00:08:35;10.09;100.32
75153;HTU21D;63734;45.218;36.708;2022-11-20T00:11:08;10.11;100.29
75153;HTU21D;63734;45.218;36.708;2022-11-20T00:13:34;10.12;100.23
75153;HTU21D;63734;45.218;36.708;2022-11-20T00:16:02;10.09;100.32
75153;HTU21D;63734;45.218;36.708;2022-11-20T00:18:29;10.06;100.41
75153;HTU21D;63734;45.218;36.708;2022-11-20T00:21:12;10.04;100.51
75153;HTU21D;63734;45.218;36.708;2022-11-20T00:23:38;10.01;100.65
75153;HTU21D;63734;45.218;36.708;2022-11-20T00:26:05;10.01;100.76
75153;HTU21D;63734;45.218;36.708;2022-11-20T00:28:32;10.01;100.88
75153;HTU21D;63734;45.218;36.708;2022-11-20T00:31:09;9.97;101.02
75153;HTU21D;63734;45.218;36.708;2022-11-20T00:33:35;9.92;101.22
75153;HTU21D;63734;45.218;36.708;2022-11-20T00:36:10;9.84;101.41
75153;HTU21D;63734;45.218;36.708;2022-11-20T00:38:36;9.79;101.73
75153;HTU21D;63734;45.218;36.708;2022-11-20T00:41:08;9.72;102.14
75153;HTU21D;63734;45.218;36.708;2022-11-20T00:43:34;9.67;102.20
75153;HTU21D;63734;45.218;36.708;2022-11-20T00:46:06;9.65;102.47
75153;HTU21D;63734;45.218;36.708;2022-11-20T00:48:32;9.61;102.44
75153;HTU21D;63734;45.218;36.708;2022-11-20T00:50:59;9.60;102.73
75153;HTU21D;63734;45.218;36.708;2022-11-20T00:53:25;9.57;103.08
75153;HTU21D;63734;45.218;36.708;2022-11-20T00:55:58;9.56;103.49
75153;HTU21D;63734;45.218;36.708;2022-11-20T00:58:27;9.57;103.69
75153;HTU21D;63734;45.218;36.708;2022-11-20T01:01:06;9.55;103.54
75153;HTU21D;63734;45.218;36.708;2022-11-20T01:03:33;9.54;103.86
75153;HTU21D;63734;45.218;36.708;2022-11-20T01:06:05;9.52;104.13
75153;HTU21D;63734;45.218;36.708;2022-11-20T01:08:33;9.50;104.35
75153;HTU21D;63734;45.218;36.708;2022-11-20T01:11:06;9.49;104.65
75153;HTU21D;63734;45.218;36.708;2022-11-20T01:13:32;9.47;104.82
75153;HTU21D;63734;45.218;36.708;2022-11-20T01:16:24;9.42;105.12
75153;HTU21D;63734;45.218;36.708;2022-11-20T01:18:53;9.36;105.46
75153;HTU21D;63734;45.218;36.708;2022-11-20T01:21:25;9.32;105.84
75153;HTU21D;63734;45.218;36.708;2022-11-20T01:23:52;9.31;106.01
75153;HTU21D;63734;45.218;36.708;2022-11-20T01:26:23;9.26;106.33
75153;HTU21D;63734;45.218;36.708;2022-11-20T01:28:50;9.24;106.46
75153;HTU21D;63734;45.218;36.708;2022-11-20T01:31:28;9.22;106.59
75153;HTU21D;63734;45.218;36.708;2022-11-20T01:33:57;9.21;106.82
75153;HTU21D;63734;45.218;36.708;2022-11-20T01:36:25;9.21;106.94
75153;HTU21D;63734;45.218;36.708;2022-11-20T01:38:56;9.23;106.97
75153;HTU21D;63734;45.218;36.708;2022-11-20T01:41:23;9.26;106.91
75153;HTU21D;63734;45.218;36.708;2022-11-20T01:44:11;9.31;106.77
75153;HTU21D;63734;45.218;36.708;2022-11-20T01:49:30;9.37;106.40
75153;HTU21D;63734;45.218;36.708;2022-11-20T01:52:04;9.41;106.20
75153;HTU21D;63734;45.218;36.708;2022-11-20T01:54:42;9.46;106.02
75153;HTU21D;63734;45.218;36.708;2022-11-20T01:57:10;9.46;105.94
75153;HTU21D;63734;45.218;36.708;2022-11-20T01:59:44;9.48;105.83
75153;HTU21D;63734;45.218;36.708;2022-11-20T02:02:19;9.48;105.79
75153;HTU21D;63734;45.218;36.708;2022-11-20T02:04:45;9.50;105.81
75153;HTU21D;63734;45.218;36.708;2022-11-20T02:07:11;9.50;105.74
75153;HTU21D;63734;45.218;36.708;2022-11-20T02:09:37;9.50;105.71
75153;HTU21D;63734;45.218;36.708;2022-11-20T02:12:03;9.50;105.73
75153;HTU21D;63734;45.218;36.708;2022-11-20T02:14:30;9.49;105.69
75153;HTU21D;63734;45.218;36.708;2022-11-20T02:16:56;9.51;105.62
75153;HTU21D;63734;45.218;36.708;2022-11-20T02:19:28;9.50;105.65
75153;HTU21D;63734;45.218;36.708;2022-11-20T02:22:08;9.49;105.72
75153;HTU21D;63734;45.218;36.708;2022-11-20T02:24:37;9.48;105.96
75153;HTU21D;63734;45.218;36.708;2022-11-20T02:27:14;9.45;105.91
75153;HTU21D;63734;45.218;36.708;2022-11-20T02:29:51;9.45;105.87
75153;HTU21D;63734;45.218;36.708;2022-11-20T02:32:22;9.45;105.81
75153;HTU21D;63734;45.218;36.708;2022-11-20T02:34:49;9.45;105.86
75153;HTU21D;63734;45.218;36.708;2022-11-20T02:37:15;9.42;105.92
75153;HTU21D;63734;45.218;36.708;2022-11-20T02:39:42;9.40;105.92
75153;HTU21D;63734;45.218;36.708;2022-11-20T02:42:08;9.39;106.02
75153;HTU21D;63734;45.218;36.708;2022-11-20T02:44:34;9.39;106.07
75153;HTU21D;63734;45.218;36.708;2022-11-20T02:47:00;9.37;106.01
75153;HTU21D;63734;45.218;36.708;2022-11-20T02:49:26;9.38;106.14
75153;HTU21D;63734;45.218;36.708;2022-11-20T02:51:52;9.37;106.21
75153;HTU21D;63734;45.218;36.708;2022-11-20T02:54:18;9.37;106.26
75153;HTU21D;63734;45.218;36.708;2022-11-20T02:56:44;9.37;106.30
75153;HTU21D;63734;45.218;36.708;2022-11-20T02:59:10;9.36;106.44
75153;HTU21D;63734;45.218;36.708;2022-11-20T03:01:36;9.36;106.63
75153;HTU21D;63734;45.218;36.708;2022-11-20T03:04:02;9.38;106.78
75153;HTU21D;63734;45.218;36.708;2022-11-20T03:06:28;9.39;107.03
75153;HTU21D;63734;45.218;36.708;2022-11-20T03:08:54;9.37;107.15
75153;HTU21D;63734;45.218;36.708;2022-11-20T03:11:20;9.38;107.26
75153;HTU21D;63734;45.218;36.708;2022-11-20T03:13:46;9.40;107.27
75153;HTU21D;63734;45.218;36.708;2022-11-20T03:16:18;9.44;107.29
75153;HTU21D;63734;45.218;36.708;2022-11-20T03:18:45;9.44;107.45
75153;HTU21D;63734;45.218;36.708;2022-11-20T03:21:12;9.45;107.61
75153;HTU21D;63734;45.218;36.708;2022-11-20T03:23:39;9.46;107.68
75153;HTU21D;63734;45.218;36.708;2022-11-20T03:26:12;9.47;107.66
75153;HTU21D;63734;45.218;36.708;2022-11-20T03:28:38;9.50;107.53
75153;HTU21D;63734;45.218;36.708;2022-11-20T03:31:07;9.51;107.39
75153;HTU21D;63734;45.218;36.708;2022-11-20T03:33:32;9.55;107.25
75153;HTU21D;63734;45.218;36.708;2022-11-20T03:36:03;9.56;107.14
75153;HTU21D;63734;45.218;36.708;2022-11-20T03:38:30;9.59;107.03
75153;HTU21D;63734;45.218;36.708;2022-11-20T03:41:01;9.59;107.07
75153;HTU21D;63734;45.218;36.708;2022-11-20T03:43:28;9.61;107.11
75153;HTU21D;63734;45.218;36.708;2022-11-20T03:45:55;9.62;107.01
75153;HTU21D;63734;45.218;36.708;2022-11-20T03:48:20;9.64;106.98
75153;HTU21D;63734;45.218;36.708;2022-11-20T03:50:46;9.64;107.00
75153;HTU21D;63734;45.218;36.708;2022-11-20T03:53:16;9.66;107.04
75153;HTU21D;63734;45.218;36.708;2022-11-20T03:55:42;9.65;106.95
75153;HTU21D;63734;45.218;36.708;2022-11-20T03:58:09;9.65;106.88
75153;HTU21D;63734;45.218;36.708;2022-11-20T04:00:35;9.65;106.85
75153;HTU21D;63734;45.218;36.708;2022-11-20T04:03:02;9.67;106.82
75153;HTU21D;63734;45.218;36.708;2022-11-20T04:05:28;9.75;106.71
75153;HTU21D;63734;45.218;36.708;2022-11-20T04:07:54;9.80;106.53
75153;HTU21D;63734;45.218;36.708;2022-11-20T04:10:20;9.79;106.50
75153;HTU21D;63734;45.218;36.708;2022-11-20T04:12:46;9.82;106.66
75153;HTU21D;63734;45.218;36.708;2022-11-20T04:15:12;9.88;106.37
75153;HTU21D;63734;45.218;36.708;2022-11-20T04:17:38;9.82;106.38
75153;HTU21D;63734;45.218;36.708;2022-11-20T04:20:04;9.81;106.40
75153;HTU21D;63734;45.218;36.708;2022-11-20T04:22:30;9.81;106.42
75153;HTU21D;63734;45.218;36.708;2022-11-20T04:24:56;9.81;106.39
75153;HTU21D;63734;45.218;36.708;2022-11-20T04:27:22;9.82;106.41
75153;HTU21D;63734;45.218;36.708;2022-11-20T04:29:47;9.81;106.43
75153;HTU21D;63734;45.218;36.708;2022-11-20T04:32:13;9.80;106.59
75153;HTU21D;63734;45.218;36.708;2022-11-20T04:34:39;9.79;106.81
75153;HTU21D;63734;45.218;36.708;2022-11-20T04:37:05;9.79;106.95
75153;HTU21D;63734;45.218;36.708;2022-11-20T04:39:31;9.81;106.86
75153;HTU21D;63734;45.218;36.708;2022-11-20T04:41:57;9.82;106.74
75153;HTU21D;63734;45.218;36.708;2022-11-20T04:44:41;9.85;106.61
75153;HTU21D;63734;45.218;36.708;2022-11-20T04:47:07;9.85;106.56
75153;HTU21D;63734;45.218;36.708;2022-11-20T04:49:33;9.89;106.56
75153;HTU21D;63734;45.218;36.708;2022-11-20T04:51:59;9.89;106.63
75153;HTU21D;63734;45.218;36.708;2022-11-20T04:54:25;9.88;106.71
75153;HTU21D;63734;45.218;36.708;2022-11-20T04:56:51;9.92;106.71
75153;HTU21D;63734;45.218;36.708;2022-11-20T04:59:17;9.96;106.61
75153;HTU21D;63734;45.218;36.708;2022-11-20T05:01:43;10.00;106.50
75153;HTU21D;63734;45.218;36.708;2022-11-20T05:04:09;10.01;106.43
75153;HTU21D;63734;45.218;36.708;2022-11-20T05:06:35;9.98;106.46
75153;HTU21D;63734;45.218;36.708;2022-11-20T05:09:00;9.99;106.51
75153;HTU21D;63734;45.218;36.708;2022-11-20T05:11:27;9.99;106.61
75153;HTU21D;63734;45.218;36.708;2022-11-20T05:13:58;10.01;106.66
75153;HTU21D;63734;45.218;36.708;2022-11-20T05:16:25;10.04;106.71
75153;HTU21D;63734;45.218;36.708;2022-11-20T05:18:52;10.08;106.65
75153;HTU21D;63734;45.218;36.708;2022-11-20T05:21:19;10.12;106.59
75153;HTU21D;63734;45.218;36.708;2022-11-20T05:23:45;10.19;106.46
75153;HTU21D;63734;45.218;36.708;2022-11-20T05:26:17;10.21;106.40
75153;HTU21D;63734;45.218;36.708;2022-11-20T05:28:43;10.23;106.37
75153;HTU21D;63734;45.218;36.708;2022-11-20T05:31:18;10.26;106.53
75153;HTU21D;63734;45.218;36.708;2022-11-20T05:33:44;10.27;106.82
75153;HTU21D;63734;45.218;36.708;2022-11-20T05:36:12;10.29;107.26
75153;HTU21D;63734;45.218;36.708;2022-11-20T05:38:41;10.36;107.68
75153;HTU21D;63734;45.218;36.708;2022-11-20T05:41:12;10.43;108.02
75153;HTU21D;63734;45.218;36.708;2022-11-20T05:43:40;10.51;108.33
75153;HTU21D;63734;45.218;36.708;2022-11-20T05:46:07;10.59;108.53
75153;HTU21D;63734;45.218;36.708;2022-11-20T05:48:34;10.66;108.67
75153;HTU21D;63734;45.218;36.708;2022-11-20T05:51:02;10.70;108.76
75153;HTU21D;63734;45.218;36.708;2022-11-20T05:53:29;10.78;108.77
75153;HTU21D;63734;45.218;36.708;2022-11-20T05:56:09;10.84;108.75
75153;HTU21D;63734;45.218;36.708;2022-11-20T05:58:36;10.90;108.97
75153;HTU21D;63734;45.218;36.708;2022-11-20T06:01:21;10.95;109.10
75153;HTU21D;63734;45.218;36.708;2022-11-20T06:03:48;10.97;109.19
75153;HTU21D;63734;45.218;36.708;2022-11-20T06:06:17;10.98;109.10
75153;HTU21D;63734;45.218;36.708;2022-11-20T06:08:44;11.01;108.97
75153;HTU21D;63734;45.218;36.708;2022-11-20T06:11:12;11.02;109.00
75153;HTU21D;63734;45.218;36.708;2022-11-20T06:13:38;11.04;108.95
75153;HTU21D;63734;45.218;36.708;2022-11-20T06:16:05;11.07;108.96
75153;HTU21D;63734;45.218;36.708;2022-11-20T06:18:31;11.10;109.04
75153;HTU21D;63734;45.218;36.708;2022-11-20T06:21:02;11.15;108.93
75153;HTU21D;63734;45.218;36.708;2022-11-20T06:23:32;11.20;109.11
75153;HTU21D;63734;45.218;36.708;2022-11-20T06:26:07;11.28;109.37
75153;HTU21D;63734;45.218;36.708;2022-11-20T06:28:34;11.32;109.52
75153;HTU21D;63734;45.218;36.708;2022-11-20T06:31:00;11.32;109.68
75153;HTU21D;63734;45.218;36.708;2022-11-20T06:33:25;11.34;109.65
75153;HTU21D;63734;45.218;36.708;2022-11-20T06:35:52;11.36;109.70
75153;HTU21D;63734;45.218;36.708;2022-11-20T06:38:18;11.36;109.71
75153;HTU21D;63734;45.218;36.708;2022-11-20T06:40:44;11.37;109.76
75153;HTU21D;63734;45.218;36.708;2022-11-20T06:43:10;11.37;109.92
75153;HTU21D;63734;45.218;36.708;2022-11-20T06:45:36;11.38;109.98
75153;HTU21D;63734;45.218;36.708;2022-11-20T06:48:02;11.39;110.16
75153;HTU21D;63734;45.218;36.708;2022-11-20T06:50:29;11.40;110.33
75153;HTU21D;63734;45.218;36.708;2022-11-20T06:52:55;11.41;110.41
75153;HTU21D;63734;45.218;36.708;2022-11-20T06:55:21;11.46;110.57
75153;HTU21D;63734;45.218;36.708;2022-11-20T06:57:47;11.54;110.59
75153;HTU21D;63734;45.218;36.708;2022-11-20T07:00:14;11.62;110.62
75153;HTU21D;63734;45.218;36.708;2022-11-20T07:02:40;11.76;110.55
75153;HTU21D;63734;45.218;36.708;2022-11-20T07:05:06;11.90;110.74
75153;HTU21D;63734;45.218;36.708;2022-11-20T07:07:32;12.03;110.76
75153;HTU21D;63734;45.218;36.708;2022-11-20T07:09:58;12.12;110.70
75153;HTU21D;63734;45.218;36.708;2022-11-20T07:12:24;12.22;110.88
75153;HTU21D;63734;45.218;36.708;2022-11-20T07:14:51;12.33;110.90
75153;HTU21D;63734;45.218;36.708;2022-11-20T07:17:17;12.47;111.01
75153;HTU21D;63734;45.218;36.708;2022-11-20T07:19:43;12.55;111.03
75153;HTU21D;63734;45.218;36.708;2022-11-20T07:22:10;12.63;111.13
75153;HTU21D;63734;45.218;36.708;2022-11-20T07:24:36;12.72;111.16
75153;HTU21D;63734;45.218;36.708;2022-11-20T07:27:02;12.81;111.14
75153;HTU21D;63734;45.218;36.708;2022-11-20T07:29:28;12.93;111.13
75153;HTU21D;63734;45.218;36.708;2022-11-20T07:31:55;13.01;111.01
75153;HTU21D;63734;45.218;36.708;2022-11-20T07:34:22;13.12;110.84
75153;HTU21D;63734;45.218;36.708;2022-11-20T07:36:49;13.25;110.69
75153;HTU21D;63734;45.218;36.708;2022-11-20T07:39:16;13.41;110.83
75153;HTU21D;63734;45.218;36.708;2022-11-20T07:41:42;13.54;110.84
75153;HTU21D;63734;45.218;36.708;2022-11-20T07:44:11;13.67;110.60
75153;HTU21D;63734;45.218;36.708;2022-11-20T07:46:37;13.80;110.46
75153;HTU21D;63734;45.218;36.708;2022-11-20T07:49:03;13.96;110.57
75153;HTU21D;63734;45.218;36.708;2022-11-20T07:51:29;14.20;110.71
75153;HTU21D;63734;45.218;36.708;2022-11-20T07:53:55;14.56;111.22
75153;HTU21D;63734;45.218;36.708;2022-11-20T07:56:21;14.89;111.28
75153;HTU21D;63734;45.218;36.708;2022-11-20T07:58:47;15.19;111.55
75153;HTU21D;63734;45.218;36.708;2022-11-20T08:01:13;15.40;111.69
75153;HTU21D;63734;45.218;36.708;2022-11-20T08:03:39;15.62;111.77
75153;HTU21D;63734;45.218;36.708;2022-11-20T08:06:05;16.01;111.90
75153;HTU21D;63734;45.218;36.708;2022-11-20T08:08:31;16.34;111.42
75153;HTU21D;63734;45.218;36.708;2022-11-20T08:10:57;16.58;110.72
75153;HTU21D;63734;45.218;36.708;2022-11-20T08:13:41;16.79;109.33
75153;HTU21D;63734;45.218;36.708;2022-11-20T08:16:26;16.92;107.76
75153;HTU21D;63734;45.218;36.708;2022-11-20T08:18:52;17.06;106.92
75153;HTU21D;63734;45.218;36.708;2022-11-20T08:21:18;17.20;105.47
75153;HTU21D;63734;45.218;36.708;2022-11-20T08:23:44;17.29;103.56
75153;HTU21D;63734;45.218;36.708;2022-11-20T08:26:10;17.35;101.93
75153;HTU21D;63734;45.218;36.708;2022-11-20T08:28:36;17.44;101.55
75153;HTU21D;63734;45.218;36.708;2022-11-20T08:31:03;17.47;100.20
75153;HTU21D;63734;45.218;36.708;2022-11-20T08:33:29;17.50;100.07
75153;HTU21D;63734;45.218;36.708;2022-11-20T08:36:05;17.58;99.85
75153;HTU21D;63734;45.218;36.708;2022-11-20T08:38:32;17.54;98.80
75153;HTU21D;63734;45.218;36.708;2022-11-20T08:40:59;17.51;99.07
75153;HTU21D;63734;45.218;36.708;2022-11-20T08:43:44;17.46;98.41
75153;HTU21D;63734;45.218;36.708;2022-11-20T08:46:10;17.37;98.55
75153;HTU21D;63734;45.218;36.708;2022-11-20T08:48:36;17.37;98.65
75153;HTU21D;63734;45.218;36.708;2022-11-20T08:51:03;17.30;98.29
75153;HTU21D;63734;45.218;36.708;2022-11-20T08:53:29;17.30;99.08
75153;HTU21D;63734;45.218;36.708;2022-11-20T08:55:58;17.35;98.60
75153;HTU21D;63734;45.218;36.708;2022-11-20T08:58:25;17.35;98.12
75153;HTU21D;63734;45.218;36.708;2022-11-20T09:00:51;17.45;98.13
75153;HTU21D;63734;45.218;36.708;2022-11-20T09:03:18;17.49;96.83
75153;HTU21D;63734;45.218;36.708;2022-11-20T09:05:44;17.50;97.27
75153;HTU21D;63734;45.218;36.708;2022-11-20T09:08:10;17.56;96.80
75153;HTU21D;63734;45.218;36.708;2022-11-20T09:10:36;17.64;95.91
75153;HTU21D;63734;45.218;36.708;2022-11-20T09:13:05;17.66;96.33
75153;HTU21D;63734;45.218;36.708;2022-11-20T09:15:31;17.72;95.62
75153;HTU21D;63734;45.218;36.708;2022-11-20T09:18:02;17.68;94.38
75153;HTU21D;63734;45.218;36.708;2022-11-20T09:20:29;17.67;94.11
75153;HTU21D;63734;45.218;36.708;2022-11-20T09:22:56;17.63;94.13
75153;HTU21D;63734;45.218;36.708;2022-11-20T09:25:22;17.61;94.30
75153;HTU21D;63734;45.218;36.708;2022-11-20T09:27:57;17.65;93.87
75153;HTU21D;63734;45.218;36.708;2022-11-20T09:30:26;17.65;93.25
75153;HTU21D;63734;45.218;36.708;2022-11-20T09:32:52;17.66;93.25
75153;HTU21D;63734;45.218;36.708;2022-11-20T09:35:18;17.69;93.79
75153;HTU21D;63734;45.218;36.708;2022-11-20T09:37:45;17.79;93.75
75153;HTU21D;63734;45.218;36.708;2022-11-20T09:40:22;17.78;92.74
75153;HTU21D;63734;45.218;36.708;2022-11-20T09:48:08;17.78;92.59
75153;HTU21D;63734;45.218;36.708;2022-11-20T09:54:04;17.69;91.91
75153;HTU21D;63734;45.218;36.708;2022-11-20T09:56:34;17.61;92.57
75153;HTU21D;63734;45.218;36.708;2022-11-20T09:59:04;17.64;92.74
75153;HTU21D;63734;45.218;36.708;2022-11-20T10:01:34;17.66;93.46
75153;HTU21D;63734;45.218;36.708;2022-11-20T10:04:11;17.75;93.69
75153;HTU21D;63734;45.218;36.708;2022-11-20T10:09:33;17.60;93.56
75153;HTU21D;63734;45.218;36.708;2022-11-20T10:12:05;17.56;93.21
75153;HTU21D;63734;45.218;36.708;2022-11-20T10:25:37;17.45;93.72
75153;HTU21D;63734;45.218;36.708;2022-11-20T10:30:31;17.48;93.91
75153;HTU21D;63734;45.218;36.708;2022-11-20T10:33:10;17.50;94.02
75153;HTU21D;63734;45.218;36.708;2022-11-20T10:35:41;17.51;93.46
75153;HTU21D;63734;45.218;36.708;2022-11-20T10:38:47;17.50;93.58
75153;HTU21D;63734;45.218;36.708;2022-11-20T10:41:26;17.47;93.67
75153;HTU21D;63734;45.218;36.708;2022-11-20T10:47:19;17.37;93.54
75153;HTU21D;63734;45.218;36.708;2022-11-20T10:49:49;17.39;94.07
75153;HTU21D;63734;45.218;36.708;2022-11-20T10:55:33;17.41;93.98
75153;HTU21D;63734;45.218;36.708;2022-11-20T10:58:14;17.39;93.95
75153;HTU21D;63734;45.218;36.708;2022-11-20T11:00:42;17.36;94.27
75153;HTU21D;63734;45.218;36.708;2022-11-20T11:03:29;17.34;94.69
75153;HTU21D;63734;45.218;36.708;2022-11-20T11:06:11;17.31;94.78
75153;HTU21D;63734;45.218;36.708;2022-11-20T11:08:40;17.28;94.94
75153;HTU21D;63734;45.218;36.708;2022-11-20T11:11:33;17.23;95.17
75153;HTU21D;63734;45.218;36.708;2022-11-20T11:14:15;17.20;95.59
75153;HTU21D;63734;45.218;36.708;2022-11-20T11:16:56;17.22;95.89
75153;HTU21D;63734;45.218;36.708;2022-11-20T11:19:23;17.22;95.79
75153;HTU21D;63734;45.218;36.708;2022-11-20T11:21:52;17.23;95.99
75153;HTU21D;63734;45.218;36.708;2022-11-20T11:24:29;17.25;95.88
75153;HTU21D;63734;45.218;36.708;2022-11-20T11:27:01;17.23;95.65
75153;HTU21D;63734;45.218;36.708;2022-11-20T11:29:33;17.16;96.00
75153;HTU21D;63734;45.218;36.708;2022-11-20T11:32:12;17.11;96.24
75153;HTU21D;63734;45.218;36.708;2022-11-20T11:34:39;17.09;96.46
75153;HTU21D;63734;45.218;36.708;2022-11-20T11:37:17;17.08;96.59
75153;HTU21D;63734;45.218;36.708;2022-11-20T11:39:44;17.06;96.65
75153;HTU21D;63734;45.218;36.708;2022-11-20T11:42:16;17.08;96.71
75153;HTU21D;63734;45.218;36.708;2022-11-20T11:44:47;17.07;96.68
75153;HTU21D;63734;45.218;36.708;2022-11-20T11:47:33;17.05;96.75
75153;HTU21D;63734;45.218;36.708;2022-11-20T11:50:14;17.06;97.05
75153;HTU21D;63734;45.218;36.708;2022-11-20T11:53:09;17.11;97.16
75153;HTU21D;63734;45.218;36.708;2022-11-20T11:55:58;17.09;97.00
75153;HTU21D;63734;45.218;36.708;2022-11-20T12:01:53;17.08;97.12
75153;HTU21D;63734;45.218;36.708;2022-11-20T12:07:03;17.26;96.57
75153;HTU21D;63734;45.218;36.708;2022-11-20T12:09:41;17.32;96.13
75153;HTU21D;63734;45.218;36.708;2022-11-20T12:12:13;17.38;96.00
75153;HTU21D;63734;45.218;36.708;2022-11-20T12:14:43;17.43;95.58
75153;HTU21D;63734;45.218;36.708;2022-11-20T12:17:13;17.43;95.33
75153;HTU21D;63734;45.218;36.708;2022-11-20T12:19:40;17.39;95.31
75153;HTU21D;63734;45.218;36.708;2022-11-20T12:22:28;17.34;95.21
75153;HTU21D;63734;45.218;36.708;2022-11-20T12:25:14;17.28;95.36
75153;HTU21D;63734;45.218;36.708;2022-11-20T12:28:12;17.20;95.55
75153;HTU21D;63734;45.218;36.708;2022-11-20T12:33:41;17.14;95.78
75153;HTU21D;63734;45.218;36.708;2022-11-20T12:36:15;17.15;96.01
75153;HTU21D;63734;45.218;36.708;2022-11-20T12:38:57;17.14;95.92
75153;HTU21D;63734;45.218;36.708;2022-11-20T12:41:46;17.09;96.10
75153;HTU21D;63734;45.218;36.708;2022-11-20T12:48:08;16.93;96.63
75153;HTU21D;63734;45.218;36.708;2022-11-20T12:57:25;16.71;97.77
75153;HTU21D;63734;45.218;36.708;2022-11-20T13:07:20;16.41;99.45
75153;HTU21D;63734;45.218;36.708;2022-11-20T13:09:49;16.34;99.60
75153;HTU21D;63734;45.218;36.708;2022-11-20T13:12:46;16.27;99.96
75153;HTU21D;63734;45.218;36.708;2022-11-20T13:15:26;16.22;99.92
75153;HTU21D;63734;45.218;36.708;2022-11-20T13:18:00;16.16;100.26
75153;HTU21D;63734;45.218;36.708;2022-11-20T13:20:27;16.10;100.85
75153;HTU21D;63734;45.218;36.708;2022-11-20T13:22:55;16.06;101.42
75153;HTU21D;63734;45.218;36.708;2022-11-20T13:25:29;16.01;101.93
75153;HTU21D;63734;45.218;36.708;2022-11-20T13:27:57;15.98;102.20
75153;HTU21D;63734;45.218;36.708;2022-11-20T13:30:27;15.98;102.54
75153;HTU21D;63734;45.218;36.708;2022-11-20T13:35:37;15.92;102.92
75153;HTU21D;63734;45.218;36.708;2022-11-20T13:38:08;15.92;102.96
75153;HTU21D;63734;45.218;36.708;2022-11-20T13:43:34;15.89;103.05
75153;HTU21D;63734;45.218;36.708;2022-11-20T13:46:04;15.88;103.34
75153;HTU21D;63734;45.218;36.708;2022-11-20T13:48:34;15.87;103.56
75153;HTU21D;63734;45.218;36.708;2022-11-20T13:56:54;15.81;103.98
75153;HTU21D;63734;45.218;36.708;2022-11-20T14:02:15;15.76;104.36
75153;HTU21D;63734;45.218;36.708;2022-11-20T14:05:03;15.74;104.49
75153;HTU21D;63734;45.218;36.708;2022-11-20T14:07:39;15.72;104.67
75153;HTU21D;63734;45.218;36.708;2022-11-20T14:10:28;15.71;104.63
75153;HTU21D;63734;45.218;36.708;2022-11-20T14:12:54;15.71;104.62
75153;HTU21D;63734;45.218;36.708;2022-11-20T14:15:32;15.71;104.60
75153;HTU21D;63734;45.218;36.708;2022-11-20T14:18:11;15.71;104.75
75153;HTU21D;63734;45.218;36.708;2022-11-20T14:20:38;15.70;104.79
75153;HTU21D;63734;45.218;36.708;2022-11-20T14:23:04;15.68;104.82
75153;HTU21D;63734;45.218;36.708;2022-11-20T14:25:35;15.69;104.79
75153;HTU21D;63734;45.218;36.708;2022-11-20T14:28:03;15.69;104.82
75153;HTU21D;63734;45.218;36.708;2022-11-20T14:30:43;15.70;104.84
75153;HTU21D;63734;45.218;36.708;2022-11-20T14:33:11;15.69;104.94
75153;HTU21D;63734;45.218;36.708;2022-11-20T14:35:44;15.68;104.98
75153;HTU21D;63734;45.218;36.708;2022-11-20T14:38:17;15.67;104.97
75153;HTU21D;63734;45.218;36.708;2022-11-20T14:40:44;15.66;105.13
75153;HTU21D;63734;45.218;36.708;2022-11-20T14:43:27;15.66;105.21
75153;HTU21D;63734;45.218;36.708;2022-11-20T14:46:05;15.63;105.34
75153;HTU21D;63734;45.218;36.708;2022-11-20T14:48:38;15.63;105.50
75153;HTU21D;63734;45.218;36.708;2022-11-20T14:51:05;15.62;105.52
75153;HTU21D;63734;45.218;36.708;2022-11-20T14:53:31;15.62;105.67
75153;HTU21D;63734;45.218;36.708;2022-11-20T14:56:02;15.61;105.63
75153;HTU21D;63734;45.218;36.708;2022-11-20T14:58:31;15.62;105.74
75153;HTU21D;63734;45.218;36.708;2022-11-20T15:01:05;15.62;105.94
75153;HTU21D;63734;45.218;36.708;2022-11-20T15:03:37;15.65;106.15
75153;HTU21D;63734;45.218;36.708;2022-11-20T15:06:06;15.63;106.35
75153;HTU21D;63734;45.218;36.708;2022-11-20T15:08:32;15.66;106.40
75153;HTU21D;63734;45.218;36.708;2022-11-20T15:10:58;15.66;106.51
75153;HTU21D;63734;45.218;36.708;2022-11-20T15:13:38;15.67;106.68
75153;HTU21D;63734;45.218;36.708;2022-11-20T15:16:18;15.68;106.73
75153;HTU21D;63734;45.218;36.708;2022-11-20T15:18:45;15.69;106.76
75153;HTU21D;63734;45.218;36.708;2022-11-20T15:21:13;15.70;106.64
75153;HTU21D;63734;45.218;36.708;2022-11-20T15:23:39;15.69;106.59
75153;HTU21D;63734;45.218;36.708;2022-11-20T15:26:07;15.69;106.70
75153;HTU21D;63734;45.218;36.708;2022-11-20T15:28:37;15.68;106.69
75153;HTU21D;63734;45.218;36.708;2022-11-20T15:31:05;15.68;106.75
75153;HTU21D;63734;45.218;36.708;2022-11-20T15:33:33;15.68;106.75
75153;HTU21D;63734;45.218;36.708;2022-11-20T15:36:00;15.67;106.85
75153;HTU21D;63734;45.218;36.708;2022-11-20T15:38:26;15.68;106.91
75153;HTU21D;63734;45.218;36.708;2022-11-20T15:40:52;15.68;107.01
75153;HTU21D;63734;45.218;36.708;2022-11-20T15:43:18;15.68;106.98
75153;HTU21D;63734;45.218;36.708;2022-11-20T15:48:15;15.65;107.05
75153;HTU21D;63734;45.218;36.708;2022-11-20T15:51:04;15.65;107.17
75153;HTU21D;63734;45.218;36.708;2022-11-20T15:53:32;15.63;107.23
75153;HTU21D;63734;45.218;36.708;2022-11-20T15:55:58;15.65;107.45
75153;HTU21D;63734;45.218;36.708;2022-11-20T15:58:24;15.65;107.43
75153;HTU21D;63734;45.218;36.708;2022-11-20T16:00:50;15.65;107.66
75153;HTU21D;63734;45.218;36.708;2022-11-20T16:03:17;15.63;107.71
75153;HTU21D;63734;45.218;36.708;2022-11-20T16:05:43;15.62;107.88
75153;HTU21D;63734;45.218;36.708;2022-11-20T16:08:10;15.61;107.87
75153;HTU21D;63734;45.218;36.708;2022-11-20T16:10:36;15.60;107.94
75153;HTU21D;63734;45.218;36.708;2022-11-20T16:13:03;15.59;108.01
75153;HTU21D;63734;45.218;36.708;2022-11-20T16:15:53;15.58;108.11
75153;HTU21D;63734;45.218;36.708;2022-11-20T16:18:22;15.58;108.15
75153;HTU21D;63734;45.218;36.708;2022-11-20T16:20:51;15.57;108.17
75153;HTU21D;63734;45.218;36.708;2022-11-20T16:23:18;15.55;108.27
75153;HTU21D;63734;45.218;36.708;2022-11-20T16:25:46;15.53;108.37
75153;HTU21D;63734;45.218;36.708;2022-11-20T16:28:13;15.51;108.43
75153;HTU21D;63734;45.218;36.708;2022-11-20T16:30:39;15.49;108.57